createdAt,value
2023-03-22T00:00:30.064Z,32.52
2023-03-22T00:02:34.705Z,32.51
2023-03-22T00:04:39.143Z,32.52
2023-03-22T00:06:43.580Z,32.61
2023-03-22T00:08:47.969Z,32.56
2023-03-22T00:10:52.369Z,32.63
2023-03-22T00:12:56.721Z,32.59
2023-03-22T00:15:01.208Z,32.59
2023-03-22T00:17:05.604Z,32.53
2023-03-22T00:19:10.017Z,32.63
2023-03-22T00:21:14.471Z,32.58
2023-03-22T00:23:18.843Z,32.63
2023-03-22T00:25:23.156Z,32.58
2023-03-22T00:27:27.578Z,32.7
2023-03-22T00:29:31.882Z,32.68
2023-03-22T00:31:36.440Z,32.64
2023-03-22T00:33:40.870Z,32.68
2023-03-22T00:35:45.463Z,32.66
2023-03-22T00:37:49.856Z,32.66
2023-03-22T00:39:54.183Z,32.65
2023-03-22T00:41:58.551Z,32.66
2023-03-22T00:44:02.969Z,32.67
2023-03-22T00:46:07.593Z,32.68
2023-03-22T00:48:12.279Z,32.7
2023-03-22T00:50:16.871Z,32.69
2023-03-22T00:52:21.261Z,32.73
2023-03-22T00:54:25.577Z,32.69
2023-03-22T00:56:30.217Z,32.83
2023-03-22T00:58:34.709Z,32.81
2023-03-22T01:00:40.167Z,32.85
2023-03-22T01:02:44.813Z,32.79
2023-03-22T01:04:49.314Z,32.85
2023-03-22T01:06:53.676Z,32.8
2023-03-22T01:08:57.989Z,32.87
2023-03-22T01:11:02.557Z,32.83
2023-03-22T01:13:06.886Z,32.83
2023-03-22T01:15:11.199Z,32.82
2023-03-22T01:17:15.557Z,32.92
2023-03-22T01:19:20.050Z,32.93
2023-03-22T01:21:24.503Z,33.22
2023-03-22T01:23:28.847Z,32.99
2023-03-22T01:25:33.158Z,33.08
2023-03-22T01:27:37.513Z,33.09
2023-03-22T01:29:41.863Z,32.99
2023-03-22T01:31:46.203Z,33.02
2023-03-22T01:33:50.601Z,32.94
2023-03-22T01:35:55.383Z,32.99
2023-03-22T01:37:59.814Z,32.97
2023-03-22T01:40:04.285Z,33.05
2023-03-22T01:42:08.685Z,32.97
2023-03-22T01:44:13.122Z,32.89
2023-03-22T01:46:17.653Z,32.94
2023-03-22T01:48:22.285Z,32.99
2023-03-22T01:50:26.619Z,33.09
2023-03-22T01:52:30.935Z,33.25
2023-03-22T01:54:35.342Z,33.11
2023-03-22T01:56:39.683Z,33.01
2023-03-22T01:58:44.086Z,33.14
2023-03-22T02:00:48.406Z,33.14
2023-03-22T02:02:52.897Z,33.21
2023-03-22T02:04:57.227Z,33.15
2023-03-22T02:07:01.543Z,33.16
2023-03-22T02:09:05.962Z,33.25
2023-03-22T02:11:10.262Z,33.21
2023-03-22T02:13:14.632Z,33.28
2023-03-22T02:15:18.985Z,33.35
2023-03-22T02:17:23.332Z,33.35
2023-03-22T02:19:27.672Z,33.44
2023-03-22T02:21:32.004Z,33.48
2023-03-22T02:23:36.308Z,33.35
2023-03-22T02:25:40.681Z,33.33
2023-03-22T02:27:45.001Z,33.31
2023-03-22T02:29:49.311Z,33.43
2023-03-22T02:31:53.653Z,33.41
2023-03-22T02:33:57.975Z,33.39
2023-03-22T02:36:02.341Z,33.48
2023-03-22T02:38:06.705Z,33.54
2023-03-22T02:40:11.053Z,33.62
2023-03-22T02:42:15.390Z,33.75
2023-03-22T02:44:19.747Z,33.74
2023-03-22T02:46:24.336Z,33.68
2023-03-22T02:48:28.778Z,33.67
2023-03-22T02:50:33.162Z,33.7
2023-03-22T02:52:37.619Z,33.64
2023-03-22T02:54:45.111Z,33.64
2023-03-22T02:56:49.945Z,33.62
2023-03-22T02:58:54.280Z,33.67
2023-03-22T03:00:58.871Z,33.71
2023-03-22T03:03:03.331Z,33.65
2023-03-22T03:05:07.801Z,33.63
2023-03-22T03:07:12.154Z,33.71
2023-03-22T03:09:16.462Z,33.7
2023-03-22T03:11:20.797Z,33.75
2023-03-22T03:13:25.111Z,33.68
2023-03-22T03:15:29.446Z,33.75
2023-03-22T03:17:33.780Z,33.81
2023-03-22T03:19:38.204Z,33.79
2023-03-22T03:22:03.502Z,33.89
2023-03-22T03:24:07.862Z,33.95
2023-03-22T03:26:12.190Z,33.91
2023-03-22T03:28:16.527Z,33.98
2023-03-22T03:30:20.935Z,33.89
2023-03-22T03:32:25.278Z,33.89
2023-03-22T03:34:29.695Z,33.85
2023-03-22T03:36:33.960Z,34.02
2023-03-22T03:38:38.333Z,34.14
2023-03-22T03:40:43.213Z,34.01
2023-03-22T03:42:47.531Z,34.12
2023-03-22T03:44:51.890Z,34.34
2023-03-22T03:46:56.503Z,34.37
2023-03-22T03:49:00.812Z,34.27
2023-03-22T03:51:05.130Z,34.25
2023-03-22T03:53:09.459Z,34.32
2023-03-22T03:55:13.771Z,34.29
2023-03-22T03:57:18.132Z,34.4
2023-03-22T03:59:22.473Z,34.27
2023-03-22T04:01:26.802Z,34.26
2023-03-22T04:03:31.157Z,34.5
2023-03-22T04:05:35.484Z,34.59
2023-03-22T04:07:39.818Z,34.35
2023-03-22T04:09:44.141Z,34.38
2023-03-22T04:11:48.473Z,34.47
2023-03-22T04:13:52.781Z,34.45
2023-03-22T04:15:57.099Z,34.53
2023-03-22T04:18:01.426Z,34.49
2023-03-22T04:20:07.946Z,34.65
2023-03-22T04:22:12.268Z,34.59
2023-03-22T04:24:16.620Z,34.64
2023-03-22T04:26:21.068Z,34.46
2023-03-22T04:28:25.416Z,34.47
2023-03-22T04:30:29.735Z,34.76
2023-03-22T04:32:34.050Z,34.67
2023-03-22T04:34:38.370Z,34.68
2023-03-22T04:36:42.728Z,34.56
2023-03-22T04:38:47.156Z,34.6
2023-03-22T04:40:51.517Z,34.5
2023-03-22T04:42:55.866Z,34.65
2023-03-22T04:45:00.162Z,34.67
2023-03-22T04:47:04.480Z,34.68
2023-03-22T04:49:08.804Z,34.76
2023-03-22T04:51:13.152Z,34.64
2023-03-22T04:53:17.564Z,34.76
2023-03-22T04:55:21.905Z,34.77
2023-03-22T04:57:26.224Z,34.84
2023-03-22T04:59:30.552Z,34.82
2023-03-22T05:01:35.089Z,34.84
2023-03-22T05:03:39.473Z,34.85
2023-03-22T05:05:43.783Z,34.82
2023-03-22T05:07:48.101Z,34.88
2023-03-22T05:09:52.413Z,34.88
2023-03-22T05:11:56.758Z,34.95
2023-03-22T05:14:01.079Z,34.89
2023-03-22T05:16:05.725Z,34.93
2023-03-22T05:18:10.162Z,35.12
2023-03-22T05:20:14.565Z,34.95
2023-03-22T05:22:18.907Z,35.02
2023-03-22T05:24:23.241Z,35.02
2023-03-22T05:26:27.618Z,35.09
2023-03-22T05:28:32.105Z,35.06
2023-03-22T05:30:36.456Z,35.09
2023-03-22T05:32:40.866Z,35.13
2023-03-22T05:34:45.169Z,35.19
2023-03-22T05:36:49.489Z,35.04
2023-03-22T05:38:53.847Z,35.24
2023-03-22T05:40:58.178Z,35.13
2023-03-22T05:43:02.555Z,35.32
2023-03-22T05:58:34.593Z,38.1
2023-03-22T06:00:39.819Z,37.96
2023-03-22T06:02:44.569Z,37.74
2023-03-22T06:04:48.943Z,38.43
2023-03-22T06:06:53.253Z,38.41
2023-03-22T06:09:18.277Z,38.31
2023-03-22T06:11:22.581Z,38.24
2023-03-22T06:13:27.091Z,37.91
2023-03-22T06:15:31.513Z,37.83
2023-03-22T06:17:35.839Z,37.79
2023-03-22T06:19:40.219Z,37.83
2023-03-22T06:21:44.563Z,37.83
2023-03-22T06:23:48.883Z,37.88
2023-03-22T06:25:53.248Z,37.82
2023-03-22T06:27:57.584Z,37.82
2023-03-22T06:30:02.002Z,37.68
2023-03-22T06:32:06.482Z,37.62
2023-03-22T06:34:10.850Z,37.68
2023-03-22T06:36:15.217Z,37.73
2023-03-22T06:38:19.551Z,37.81
2023-03-22T06:40:24.071Z,38.1
2023-03-22T06:42:28.399Z,37.46
2023-03-22T06:44:32.842Z,37
2023-03-22T06:46:37.278Z,37.07
2023-03-22T06:48:41.603Z,37.27
2023-03-22T06:50:47.239Z,37.43
2023-03-22T06:52:51.541Z,37.6
2023-03-22T06:54:55.868Z,37.98
2023-03-22T06:57:00.222Z,38.11
2023-03-22T06:59:04.572Z,38.24
2023-03-22T07:01:09.130Z,38.26
2023-03-22T07:03:13.513Z,38.16
2023-03-22T07:05:17.868Z,38.06
2023-03-22T07:07:22.283Z,37.94
2023-03-22T07:09:26.627Z,38.25
2023-03-22T07:11:30.996Z,38.18
2023-03-22T07:13:35.311Z,37.91
2023-03-22T07:15:39.789Z,38.09
2023-03-22T07:17:44.187Z,38.08
2023-03-22T07:19:48.648Z,37.92
2023-03-22T07:21:52.974Z,37.7
2023-03-22T07:23:57.437Z,37.67
2023-03-22T07:26:01.775Z,37.46
2023-03-22T07:28:06.196Z,37.29
2023-03-22T07:30:11.913Z,37.32
2023-03-22T07:32:16.703Z,37.48
2023-03-22T07:34:21.313Z,37.45
2023-03-22T07:36:25.843Z,37.22
2023-03-22T07:38:30.106Z,37.17
2023-03-22T07:40:34.438Z,37.22
2023-03-22T07:42:39.135Z,37.17
2023-03-22T07:44:45.907Z,37.11
2023-03-22T07:46:50.600Z,37.1
2023-03-22T07:48:54.928Z,37.14
2023-03-22T07:50:59.226Z,37.06
2023-03-22T07:53:03.702Z,36.99
2023-03-22T07:55:08.141Z,37
2023-03-22T07:57:12.512Z,36.94
2023-03-22T07:59:17.136Z,36.99
2023-03-22T08:01:21.646Z,36.93
2023-03-22T08:03:26.296Z,36.9
2023-03-22T08:05:30.707Z,36.94
2023-03-22T08:07:35.189Z,36.84
2023-03-22T08:09:39.507Z,36.88
2023-03-22T08:11:43.842Z,36.88
2023-03-22T08:13:48.230Z,36.91
2023-03-22T08:15:52.620Z,36.86
2023-03-22T08:17:56.982Z,36.81
2023-03-22T08:20:01.454Z,36.81
2023-03-22T08:22:05.844Z,36.77
2023-03-22T08:24:10.232Z,36.73
2023-03-22T08:26:14.595Z,36.74
2023-03-22T08:28:19.069Z,36.81
2023-03-22T08:30:23.627Z,36.7
2023-03-22T08:32:27.994Z,36.63
2023-03-22T08:34:32.534Z,36.54
2023-03-22T08:36:36.906Z,36.49
2023-03-22T08:38:41.243Z,36.43
2023-03-22T08:40:45.817Z,36.3
2023-03-22T08:42:50.238Z,36.31
2023-03-22T08:44:54.587Z,36.28
2023-03-22T08:46:59.076Z,36.19
2023-03-22T08:49:03.549Z,36.12
2023-03-22T08:51:07.893Z,36.1
2023-03-22T08:53:12.300Z,36.07
2023-03-22T08:55:16.658Z,36.04
2023-03-22T08:57:21.035Z,36.02
2023-03-22T08:59:25.399Z,35.91
2023-03-22T09:01:30.179Z,35.92
2023-03-22T09:03:34.767Z,35.9
2023-03-22T09:05:40.202Z,35.84
2023-03-22T09:07:44.685Z,35.83
2023-03-22T09:09:49.165Z,35.76
2023-03-22T09:11:53.514Z,35.66
2023-03-22T09:13:57.833Z,35.58
2023-03-22T09:16:02.436Z,35.44
2023-03-22T09:18:06.768Z,35.25
2023-03-22T09:20:15.004Z,35.39
2023-03-22T09:22:19.468Z,35.35
2023-03-22T09:24:23.810Z,35.18
2023-03-22T09:26:28.397Z,35.15
2023-03-22T09:28:33.076Z,35.1
2023-03-22T09:30:37.496Z,35.04
2023-03-22T09:32:41.896Z,35
2023-03-22T09:34:46.264Z,34.9
2023-03-22T09:36:50.620Z,34.85
2023-03-22T09:38:54.943Z,34.87
2023-03-22T09:40:59.310Z,34.8
2023-03-22T09:43:03.815Z,34.77
2023-03-22T09:45:08.229Z,34.74
2023-03-22T09:47:12.643Z,34.71
2023-03-22T09:49:16.950Z,34.65
2023-03-22T09:51:21.286Z,34.63
2023-03-22T09:53:25.628Z,34.54
2023-03-22T09:55:29.966Z,34.44
2023-03-22T09:57:34.321Z,34.43
2023-03-22T09:59:38.669Z,34.34
2023-03-22T10:01:43.827Z,34.27
2023-03-22T10:03:48.505Z,34.44
2023-03-22T10:05:52.856Z,34.37
2023-03-22T10:07:57.216Z,34.39
2023-03-22T10:10:01.667Z,34.3
2023-03-22T10:12:06.043Z,34.29
2023-03-22T10:14:10.471Z,34.23
2023-03-22T10:16:15.021Z,34.25
2023-03-22T10:18:19.556Z,34.23
2023-03-22T10:20:23.922Z,34.23
2023-03-22T10:22:28.330Z,34.21
2023-03-22T10:24:32.846Z,34.16
2023-03-22T10:26:37.202Z,34.18
2023-03-22T10:28:41.643Z,34.14
2023-03-22T10:30:45.971Z,34.14
2023-03-22T10:32:59.775Z,34.1
2023-03-22T10:35:04.252Z,34.07
2023-03-22T10:37:08.710Z,34.02
2023-03-22T10:39:14.795Z,34.03
2023-03-22T10:41:19.349Z,33.95
2023-03-22T10:43:23.700Z,34.01
2023-03-22T10:45:28.181Z,34.04
2023-03-22T10:47:32.644Z,34.02
2023-03-22T10:49:36.990Z,34.01
2023-03-22T10:51:41.358Z,34.05
2023-03-22T10:53:45.725Z,34.07
2023-03-22T10:55:50.257Z,34.07
2023-03-22T10:57:54.601Z,33.99
2023-03-22T10:59:59.083Z,34.02
2023-03-22T11:02:03.985Z,33.99
2023-03-22T11:04:08.533Z,33.93
2023-03-22T11:06:12.975Z,33.89
2023-03-22T11:08:17.367Z,33.91
2023-03-22T11:10:21.894Z,33.92
2023-03-22T11:12:26.356Z,33.89
2023-03-22T11:14:30.705Z,33.88
2023-03-22T11:16:35.281Z,33.94
2023-03-22T11:18:39.661Z,33.94
2023-03-22T11:20:45.335Z,33.94
2023-03-22T11:22:49.834Z,33.96
2023-03-22T11:24:54.273Z,33.99
2023-03-22T11:26:58.644Z,34.01
2023-03-22T11:29:02.954Z,34.02
2023-03-22T11:31:07.356Z,34.02
2023-03-22T11:33:11.916Z,34.05
2023-03-22T11:35:16.249Z,34.2
2023-03-22T11:37:20.673Z,34.51
2023-03-22T11:39:25.095Z,34.53
2023-03-22T11:41:29.519Z,34.49
2023-03-22T11:43:33.857Z,34.46
2023-03-22T11:45:38.436Z,34.4
2023-03-22T11:47:43.202Z,34.38
2023-03-22T11:49:47.691Z,34.42
2023-03-22T11:51:52.084Z,34.44
2023-03-22T11:53:56.518Z,34.43
2023-03-22T11:56:00.973Z,34.43
2023-03-22T11:58:05.374Z,34.42
2023-03-22T12:00:09.695Z,34.44
2023-03-22T12:02:14.266Z,34.46
2023-03-22T12:04:18.952Z,34.44
2023-03-22T12:06:23.534Z,34.49
2023-03-22T12:08:27.984Z,34.49
2023-03-22T12:10:32.318Z,34.49
2023-03-22T12:12:36.714Z,34.53
2023-03-22T12:14:41.072Z,34.55
2023-03-22T12:16:45.701Z,34.53
2023-03-22T12:18:50.108Z,34.48
2023-03-22T12:20:54.443Z,34.42
2023-03-22T12:22:58.869Z,34.34
2023-03-22T12:25:03.320Z,34.32
2023-03-22T12:27:07.685Z,34.28
2023-03-22T12:29:12.045Z,34.25
2023-03-22T12:31:16.673Z,34.25
2023-03-22T12:33:21.443Z,34.33
2023-03-22T12:35:25.796Z,34.36
2023-03-22T12:37:32.464Z,34.34
2023-03-22T12:39:36.903Z,34.25
2023-03-22T12:41:41.371Z,34.13
2023-03-22T12:43:45.734Z,34.04
2023-03-22T12:45:50.291Z,33.88
2023-03-22T12:47:55.230Z,32.52
2023-03-22T12:49:59.903Z,32.34
2023-03-22T12:52:04.263Z,32.56
2023-03-22T12:54:08.766Z,32.41
2023-03-22T12:56:13.195Z,32.65
2023-03-22T12:58:17.555Z,32.11
2023-03-22T13:00:22.009Z,32.04
2023-03-22T13:02:28.897Z,32.22
2023-03-22T13:04:33.357Z,32.28
2023-03-22T13:06:37.746Z,31.26
2023-03-22T13:08:42.157Z,31.48
2023-03-22T13:10:46.557Z,30.82
2023-03-22T13:12:50.909Z,31.01
2023-03-22T13:14:55.254Z,31.76
2023-03-22T13:16:59.904Z,31.15
2023-03-22T13:19:04.341Z,30.96
2023-03-22T13:21:08.707Z,30.95
2023-03-22T13:23:13.087Z,30.29
2023-03-22T13:25:17.534Z,29.87
2023-03-22T13:27:22.108Z,29.6
2023-03-22T13:29:26.749Z,29.27
2023-03-22T13:31:31.218Z,29.44
2023-03-22T13:33:35.717Z,29.58
2023-03-22T13:35:41.146Z,29.64
2023-03-22T13:37:45.661Z,29.64
2023-03-22T13:39:50.026Z,29.71
2023-03-22T13:41:54.451Z,29.74
2023-03-22T13:43:59.023Z,29.8
2023-03-22T13:46:03.668Z,30.28
2023-03-22T13:48:08.854Z,30.4
2023-03-22T13:50:13.495Z,30.86
2023-03-22T13:52:17.929Z,30.4
2023-03-22T13:54:22.315Z,31.66
2023-03-22T13:56:26.752Z,31.75
2023-03-22T13:58:31.205Z,32.26
2023-03-22T14:00:35.721Z,32.02
2023-03-22T14:02:40.612Z,32.51
2023-03-22T14:04:44.950Z,32.58
2023-03-22T14:06:49.256Z,32.37
2023-03-22T14:08:53.626Z,32.35
2023-03-22T14:10:57.928Z,32.76
2023-03-22T14:13:02.255Z,32.65
2023-03-22T14:15:06.707Z,32.53
2023-03-22T14:17:11.084Z,32.35
2023-03-22T14:19:15.457Z,32.39
2023-03-22T14:21:19.800Z,32.25
2023-03-22T14:47:44.547Z,32.07
2023-03-22T14:49:49.640Z,32.15
2023-03-22T14:53:56.418Z,32.15
2023-03-22T14:56:02.087Z,32.06
2023-03-22T14:58:07.204Z,32.47
2023-03-22T15:00:12.904Z,32.27
2023-03-22T15:02:17.951Z,32.06
2023-03-22T15:04:22.972Z,31.9
2023-03-22T15:06:28.165Z,31.79
2023-03-22T15:08:33.164Z,32.19
2023-03-22T15:10:38.431Z,32.65
2023-03-22T15:12:43.573Z,30.95
2023-03-22T15:14:48.594Z,30.65
2023-03-22T15:16:53.641Z,30.82
2023-03-22T15:18:58.676Z,30.73
2023-03-22T15:21:04.010Z,31
2023-03-22T15:23:09.054Z,31.37
2023-03-22T15:25:14.136Z,31.3
2023-03-22T15:27:19.364Z,31.13
2023-03-22T15:29:24.423Z,31.3
2023-03-22T15:31:29.540Z,31.2
2023-03-22T15:33:34.602Z,31.52
2023-03-22T15:35:42.343Z,31.14
2023-03-22T15:37:47.519Z,31.26
2023-03-22T15:39:52.521Z,31.2
2023-03-22T15:41:57.507Z,31.16
2023-03-22T15:44:02.599Z,31.15
2023-03-22T15:46:07.735Z,30.84
2023-03-22T15:48:12.750Z,31.01
2023-03-22T15:50:17.760Z,30.69
2023-03-22T15:52:22.755Z,30.66
2023-03-22T15:54:27.825Z,31.08
2023-03-22T15:56:41.591Z,31.07
2023-03-22T15:58:46.812Z,31.02
2023-03-22T16:00:51.936Z,31.01
2023-03-22T16:02:56.970Z,30.95
2023-03-22T16:05:02.031Z,30.98
2023-03-22T16:07:07.076Z,31.3
2023-03-22T16:09:12.133Z,31.27
2023-03-22T16:11:17.112Z,31.65
2023-03-22T16:13:22.195Z,31.13
2023-03-22T16:15:27.202Z,31.27
2023-03-22T16:17:32.223Z,31.27
2023-03-22T16:19:37.324Z,31.17
2023-03-22T16:21:42.340Z,31.33
2023-03-22T16:23:47.332Z,31.23
2023-03-22T16:25:52.308Z,31.24
2023-03-22T16:27:57.514Z,31.19
2023-03-22T16:30:02.561Z,31.46
2023-03-22T16:32:07.559Z,31.61
2023-03-22T16:34:12.582Z,31.59
2023-03-22T16:36:17.682Z,31.43
2023-03-22T16:38:22.729Z,31.71
2023-03-22T16:40:27.785Z,31.6
2023-03-22T16:42:34.839Z,31.41
2023-03-22T16:44:56.133Z,32.02
2023-03-22T16:47:01.449Z,32.47
2023-03-22T16:49:06.598Z,32.26
2023-03-22T16:51:11.705Z,32.3
2023-03-22T16:53:16.766Z,32.37
2023-03-22T16:55:21.809Z,32.39
2023-03-22T16:57:27.029Z,32.32
2023-03-22T16:59:32.265Z,32.22
2023-03-22T17:01:37.576Z,32.26
2023-03-22T17:03:42.857Z,32.36
2023-03-22T17:05:48.066Z,32.44
2023-03-22T17:07:53.190Z,32.34
2023-03-22T17:09:58.321Z,32.39
2023-03-22T17:12:03.506Z,32.27
2023-03-22T17:14:08.555Z,32.23
2023-03-22T17:16:13.741Z,32.44
2023-03-22T17:18:18.876Z,32.33
2023-03-22T17:20:23.859Z,32.45
2023-03-22T17:22:30.454Z,32.42
2023-03-22T17:24:35.572Z,32.95
2023-03-22T17:26:40.765Z,32.96
2023-03-22T17:28:46.098Z,32.97
2023-03-22T17:30:51.309Z,33.01
2023-03-22T17:33:04.715Z,33.12
2023-03-22T17:35:10.180Z,33.22
2023-03-22T17:37:15.350Z,33.36
2023-03-22T17:40:28.216Z,33.43
2023-03-22T17:42:37.700Z,33.36
2023-03-22T17:44:44.162Z,33.68
2023-03-22T17:47:44.317Z,33.65
2023-03-22T17:49:50.049Z,33.71
2023-03-22T17:51:55.628Z,33.83
2023-03-22T18:00:36.336Z,33.32
2023-03-22T18:02:41.803Z,33.14
2023-03-22T18:04:46.967Z,32.88
2023-03-22T18:06:52.071Z,32.95
2023-03-22T18:08:57.167Z,32.66
2023-03-22T18:11:02.311Z,32.26
2023-03-22T18:13:07.890Z,31.94
2023-03-22T18:15:12.916Z,31.96
2023-03-22T18:17:18.409Z,30.83
2023-03-22T18:19:23.749Z,30.83
2023-03-22T18:21:28.787Z,30.71
2023-03-22T18:23:33.913Z,30.88
2023-03-22T18:25:45.303Z,30.99
2023-03-22T18:27:50.370Z,30.79
2023-03-22T18:29:55.335Z,30.83
2023-03-22T18:32:21.277Z,30.89
2023-03-22T18:34:27.028Z,30.91
2023-03-22T18:36:32.394Z,30.97
2023-03-22T18:40:45.280Z,31.2
2023-03-22T18:42:59.483Z,31.21
2023-03-22T18:45:04.740Z,31.61
2023-03-22T18:47:10.046Z,31.37
2023-03-22T18:49:15.237Z,31.28
2023-03-22T18:51:21.743Z,32.06
2023-03-22T18:53:26.964Z,32.81
2023-03-22T18:55:47.671Z,33.03
2023-03-22T18:57:54.225Z,33.15
2023-03-22T18:59:59.247Z,33.33
2023-03-22T19:02:36.392Z,33.26
2023-03-22T19:04:44.054Z,33.43
2023-03-22T19:06:49.289Z,33.54
2023-03-22T19:08:54.399Z,33.53
2023-03-22T19:10:59.414Z,33.48
2023-03-22T19:13:05.504Z,33.23
2023-03-22T19:15:51.133Z,32.93
2023-03-22T19:17:56.384Z,33.01
2023-03-22T19:20:01.872Z,33.32
2023-03-22T19:22:06.959Z,33.36
2023-03-22T19:24:12.077Z,32.76
2023-03-22T19:26:17.355Z,32.51
2023-03-22T19:28:27.058Z,32.96
2023-03-22T19:30:32.244Z,32.47
2023-03-22T19:32:37.413Z,32.82
2023-03-22T19:34:42.460Z,32.52
2023-03-22T19:36:47.641Z,31.99
2023-03-22T19:38:52.730Z,31.96
2023-03-22T19:43:52.801Z,32.5
2023-03-22T19:45:57.975Z,32.55
2023-03-22T19:48:06.942Z,32.71
2023-03-22T19:50:11.972Z,32.26
2023-03-22T19:52:18.461Z,32.07
2023-03-22T19:54:45.338Z,31.78
2023-03-22T19:56:50.659Z,32.17
2023-03-22T19:58:56.292Z,32.3
2023-03-22T20:01:04.488Z,32
2023-03-22T20:03:09.758Z,31.73
2023-03-22T20:05:20.414Z,31.75
2023-03-22T20:07:25.538Z,31.6
2023-03-22T20:09:30.552Z,31.43
2023-03-22T20:11:45.868Z,31.31
2023-03-22T20:13:50.915Z,31.26
2023-03-22T20:15:56.295Z,31.14
2023-03-22T20:18:01.436Z,31.72
2023-03-22T20:20:07.174Z,32.47
2023-03-22T20:22:12.418Z,32.1
2023-03-22T20:24:17.475Z,32.55
2023-03-22T20:26:22.474Z,32.11
2023-03-22T20:28:27.640Z,32.23
2023-03-22T20:30:32.691Z,32.36
2023-03-22T20:32:37.822Z,32.16
2023-03-22T20:34:43.164Z,32.57
2023-03-22T20:36:48.161Z,32.4
2023-03-22T20:38:53.351Z,32.57
2023-03-22T20:40:58.579Z,32.35
2023-03-22T20:43:03.835Z,31.93
2023-03-22T20:45:08.905Z,32.02
2023-03-22T20:47:13.976Z,31.77
2023-03-22T20:49:18.982Z,31.74
2023-03-22T20:51:24.053Z,31.51
2023-03-22T20:53:29.475Z,31.57
2023-03-22T20:55:34.476Z,31.62
2023-03-22T20:57:39.554Z,31.78
2023-03-22T20:59:44.590Z,32.21
2023-03-22T21:01:49.663Z,32.93
2023-03-22T21:03:54.934Z,33.88
2023-03-22T21:05:59.986Z,33.83
2023-03-22T21:08:05.013Z,33.87
2023-03-22T21:10:10.264Z,34.28
2023-03-22T21:12:15.295Z,33.65
2023-03-22T21:14:20.352Z,34.5
2023-03-22T21:16:25.347Z,34.41
2023-03-22T21:18:30.483Z,34.79
2023-03-22T21:20:35.613Z,34.67
2023-03-22T21:22:40.837Z,34.57
2023-03-22T21:24:46.291Z,34.69
2023-03-22T21:26:51.395Z,34.64
2023-03-22T21:28:56.458Z,34.63
2023-03-22T21:31:01.666Z,34.6
2023-03-22T21:33:06.655Z,34.18
2023-03-22T21:35:12.017Z,34.66
2023-03-22T21:37:17.418Z,33.81
2023-03-22T21:39:22.450Z,34.27
2023-03-22T21:41:27.719Z,34.67
2023-03-22T21:43:32.946Z,34.48
2023-03-22T21:45:37.938Z,34.43
2023-03-22T21:47:42.925Z,34.21
2023-03-22T21:49:47.904Z,34.25
2023-03-22T21:51:53.037Z,34.41
2023-03-22T21:53:58.342Z,33.86
2023-03-22T21:56:03.309Z,33.78
2023-03-22T21:58:08.655Z,34.5
2023-03-22T22:00:14.033Z,34.41
2023-03-22T22:02:19.269Z,34.69
2023-03-22T22:04:24.294Z,33.57
2023-03-22T22:06:29.318Z,34.9
2023-03-22T22:08:34.689Z,34.73
2023-03-22T22:10:39.900Z,34.41
2023-03-22T22:12:45.239Z,34.76
2023-03-22T22:14:50.488Z,34.88
2023-03-22T22:16:55.787Z,34.69
2023-03-22T22:19:00.893Z,34.86
2023-03-22T22:21:05.882Z,34.78
2023-03-22T22:23:11.091Z,34.67
2023-03-22T22:25:16.571Z,34.79
2023-03-22T22:27:22.185Z,34.52
2023-03-22T22:29:27.728Z,34.51
2023-03-22T22:31:32.933Z,34.05
2023-03-22T22:33:38.013Z,34.4
2023-03-22T22:35:44.332Z,34.51
2023-03-22T22:37:49.442Z,34.53
2023-03-22T22:39:55.248Z,34.59
2023-03-22T22:42:00.730Z,34.53
2023-03-22T22:44:05.807Z,33.73
2023-03-22T22:46:11.009Z,34.01
2023-03-22T22:48:16.272Z,34.16
2023-03-22T22:50:21.314Z,34.52
2023-03-22T22:52:26.500Z,34.48
2023-03-22T22:54:31.713Z,34.61
2023-03-22T22:56:36.805Z,34.53
2023-03-22T22:58:42.052Z,34.68
2023-03-22T23:00:47.037Z,34.51
2023-03-22T23:02:52.013Z,34.68
2023-03-22T23:04:57.091Z,34.45
2023-03-22T23:07:02.082Z,34.28
2023-03-22T23:09:07.061Z,34.47
2023-03-22T23:11:12.194Z,34.58
2023-03-22T23:13:17.281Z,34.53
2023-03-22T23:15:29.870Z,34.61
2023-03-22T23:17:34.980Z,34.67
2023-03-22T23:19:40.045Z,34.63
2023-03-22T23:21:45.026Z,34.72
2023-03-22T23:23:52.551Z,34.77
2023-03-22T23:25:57.961Z,34.83
2023-03-22T23:28:02.888Z,34.8
2023-03-22T23:30:07.966Z,34.86
2023-03-22T23:32:13.067Z,35.06
2023-03-22T23:34:18.538Z,35.03
2023-03-22T23:36:23.539Z,35.21
2023-03-22T23:38:28.821Z,35.4
2023-03-22T23:40:34.094Z,35.56
2023-03-22T23:42:39.311Z,35.61
2023-03-22T23:44:44.324Z,35.48
2023-03-22T23:46:49.539Z,35.23
2023-03-22T23:48:54.625Z,35.48
2023-03-22T23:50:59.724Z,35.12
2023-03-22T23:53:04.842Z,35.24
2023-03-22T23:55:09.986Z,35.5
2023-03-22T23:57:15.173Z,35.44
2023-03-22T23:59:20.380Z,35.45
